KBRG/BRG METAR and TAF weather

Enter ICAO airport designator
Station Type Date Time Source
KBRG METAR 2018/11/13 15:55 UTC NOAA

KBRG 131555Z 34007KT 10SM CLR M02/M08 A3061 RMK ZAB/FDCS


Station Type Date Time Source
KBRG Decoded METAR 2018/11/13 15:55 UTC NOAA

Station name not available
Nov 13, 2018 - 10:55 AM EST / 2018.11.13 1555 UTC
Wind: from the NNW (340 degrees) at 8 MPH (7 KT):0
Visibility: 10 mile(s):0
Sky conditions: clear
Temperature: 28 F (-2 C)
Windchill: 19 F (-7 C):1
Dew Point: 17 F (-8 C)
Relative Humidity: 63%
Pressure (altimeter): 30.61 in. Hg (1036 hPa)
ob: KBRG 131555Z 34007KT 10SM CLR M02/M08 A3061 RMK ZAB/FDCS
cycle: 16

Station Type Date Time Source
KBRG TAF 2012/07/03 12:12 UTC NOAA

TAF SKBRG 031000Z 031212 VRB02KT 9999 FEW017 SCT080
TEMPO 0312/0317 11005KT VCTS - DZRAFEW015CB BKN070
TEMPO 0318/0323 TSRA FEW017CB BKN070
TEMPO 0400/0402 VCTS FEW020CB
TEMPO 0402/0406 -DZ SCT015CB
TEMPO 0408/0412 00000KT 5000 BCFG FEW005 TX23/0319Z TN10/0411Z


Example: see airport list